sensor_id;sensor_type;location;lat;lon;timestamp;temperature;humidity
66726;HTU21D;53638;51.062;5.804;2024-01-30T00:02:24;10.66;-6.00
66726;HTU21D;53638;51.062;5.804;2024-01-30T00:04:51;10.64;-6.00
66726;HTU21D;53638;51.062;5.804;2024-01-30T00:07:19;10.60;-6.00
66726;HTU21D;53638;51.062;5.804;2024-01-30T00:09:51;10.58;-6.00
66726;HTU21D;53638;51.062;5.804;2024-01-30T00:12:17;10.60;-6.00
66726;HTU21D;53638;51.062;5.804;2024-01-30T00:14:43;10.58;-6.00
66726;HTU21D;53638;51.062;5.804;2024-01-30T00:17:10;10.56;-6.00
66726;HTU21D;53638;51.062;5.804;2024-01-30T00:19:36;10.54;-6.00
66726;HTU21D;53638;51.062;5.804;2024-01-30T00:22:02;10.56;-6.00
66726;HTU21D;53638;51.062;5.804;2024-01-30T00:24:28;10.53;-6.00
66726;HTU21D;53638;51.062;5.804;2024-01-30T00:26:54;10.50;-6.00
66726;HTU21D;53638;51.062;5.804;2024-01-30T00:29:20;10.52;-6.00
66726;HTU21D;53638;51.062;5.804;2024-01-30T00:31:48;10.48;-6.00
66726;HTU21D;53638;51.062;5.804;2024-01-30T00:34:14;10.50;-6.00
66726;HTU21D;53638;51.062;5.804;2024-01-30T00:36:40;10.48;-6.00
66726;HTU21D;53638;51.062;5.804;2024-01-30T00:39:06;10.45;-6.00
66726;HTU21D;53638;51.062;5.804;2024-01-30T00:41:34;10.40;-6.00
66726;HTU21D;53638;51.062;5.804;2024-01-30T00:44:00;10.30;-6.00
66726;HTU21D;53638;51.062;5.804;2024-01-30T00:46:26;10.26;-6.00
66726;HTU21D;53638;51.062;5.804;2024-01-30T00:48:52;10.20;-6.00
66726;HTU21D;53638;51.062;5.804;2024-01-30T00:51:27;10.25;-6.00
66726;HTU21D;53638;51.062;5.804;2024-01-30T00:53:55;10.22;-6.00
66726;HTU21D;53638;51.062;5.804;2024-01-30T00:56:21;10.16;-6.00
66726;HTU21D;53638;51.062;5.804;2024-01-30T00:58:53;10.12;-6.00
66726;HTU21D;53638;51.062;5.804;2024-01-30T01:01:19;10.09;-6.00
66726;HTU21D;53638;51.062;5.804;2024-01-30T01:03:45;10.05;-6.00
66726;HTU21D;53638;51.062;5.804;2024-01-30T01:06:11;10.05;-6.00
66726;HTU21D;53638;51.062;5.804;2024-01-30T01:08:37;10.01;-6.00
66726;HTU21D;53638;51.062;5.804;2024-01-30T01:11:03;10.01;-6.00
66726;HTU21D;53638;51.062;5.804;2024-01-30T01:13:29;9.99;-6.00
66726;HTU21D;53638;51.062;5.804;2024-01-30T01:15:55;9.93;-6.00
66726;HTU21D;53638;51.062;5.804;2024-01-30T01:18:21;9.91;-6.00
66726;HTU21D;53638;51.062;5.804;2024-01-30T01:20:47;9.89;-6.00
66726;HTU21D;53638;51.062;5.804;2024-01-30T01:23:13;9.90;-6.00
66726;HTU21D;53638;51.062;5.804;2024-01-30T01:25:39;9.91;-6.00
66726;HTU21D;53638;51.062;5.804;2024-01-30T01:28:05;9.93;-6.00
66726;HTU21D;53638;51.062;5.804;2024-01-30T01:30:33;9.90;-6.00
66726;HTU21D;53638;51.062;5.804;2024-01-30T01:32:59;9.84;-6.00
66726;HTU21D;53638;51.062;5.804;2024-01-30T01:36:03;9.91;-6.00
66726;HTU21D;53638;51.062;5.804;2024-01-30T01:38:29;9.91;-6.00
66726;HTU21D;53638;51.062;5.804;2024-01-30T01:40:56;9.95;-6.00
66726;HTU21D;53638;51.062;5.804;2024-01-30T01:43:22;9.96;-6.00
66726;HTU21D;53638;51.062;5.804;2024-01-30T01:45:48;9.93;-6.00
66726;HTU21D;53638;51.062;5.804;2024-01-30T01:48:20;9.92;-6.00
66726;HTU21D;53638;51.062;5.804;2024-01-30T01:50:50;10.04;-6.00
66726;HTU21D;53638;51.062;5.804;2024-01-30T01:53:19;10.05;-6.00
66726;HTU21D;53638;51.062;5.804;2024-01-30T01:55:47;10.06;-6.00
66726;HTU21D;53638;51.062;5.804;2024-01-30T01:58:14;10.10;-6.00
66726;HTU21D;53638;51.062;5.804;2024-01-30T02:00:40;10.13;-6.00
66726;HTU21D;53638;51.062;5.804;2024-01-30T02:03:10;10.16;-6.00
66726;HTU21D;53638;51.062;5.804;2024-01-30T02:05:38;10.20;-6.00
66726;HTU21D;53638;51.062;5.804;2024-01-30T02:08:05;10.26;-6.00
66726;HTU21D;53638;51.062;5.804;2024-01-30T02:10:31;10.26;-6.00
66726;HTU21D;53638;51.062;5.804;2024-01-30T02:13:00;10.28;-6.00
66726;HTU21D;53638;51.062;5.804;2024-01-30T02:15:37;10.21;-6.00
66726;HTU21D;53638;51.062;5.804;2024-01-30T02:18:04;10.27;-6.00
66726;HTU21D;53638;51.062;5.804;2024-01-30T02:20:35;10.29;-6.00
66726;HTU21D;53638;51.062;5.804;2024-01-30T02:23:02;10.29;-6.00
66726;HTU21D;53638;51.062;5.804;2024-01-30T02:25:40;10.36;-6.00
66726;HTU21D;53638;51.062;5.804;2024-01-30T02:28:11;10.37;-6.00
66726;HTU21D;53638;51.062;5.804;2024-01-30T02:30:39;10.41;-6.00
66726;HTU21D;53638;51.062;5.804;2024-01-30T02:33:05;10.42;-6.00
66726;HTU21D;53638;51.062;5.804;2024-01-30T02:35:31;10.33;-6.00
66726;HTU21D;53638;51.062;5.804;2024-01-30T02:37:57;10.39;-6.00
66726;HTU21D;53638;51.062;5.804;2024-01-30T02:40:23;10.41;-6.00
66726;HTU21D;53638;51.062;5.804;2024-01-30T02:42:49;10.46;-6.00
66726;HTU21D;53638;51.062;5.804;2024-01-30T02:45:15;10.46;-6.00
66726;HTU21D;53638;51.062;5.804;2024-01-30T02:47:41;10.45;-6.00
66726;HTU21D;53638;51.062;5.804;2024-01-30T02:50:07;10.46;-6.00
66726;HTU21D;53638;51.062;5.804;2024-01-30T02:52:34;10.46;-6.00
66726;HTU21D;53638;51.062;5.804;2024-01-30T02:55:01;10.43;-6.00
66726;HTU21D;53638;51.062;5.804;2024-01-30T02:57:28;10.39;-6.00
66726;HTU21D;53638;51.062;5.804;2024-01-30T02:59:55;10.40;-6.00
66726;HTU21D;53638;51.062;5.804;2024-01-30T03:02:21;10.36;-6.00
66726;HTU21D;53638;51.062;5.804;2024-01-30T03:04:49;10.37;-6.00
66726;HTU21D;53638;51.062;5.804;2024-01-30T03:07:15;10.39;-6.00
66726;HTU21D;53638;51.062;5.804;2024-01-30T03:09:42;10.40;-6.00
66726;HTU21D;53638;51.062;5.804;2024-01-30T03:12:09;10.41;-6.00
66726;HTU21D;53638;51.062;5.804;2024-01-30T03:14:36;10.42;-6.00
66726;HTU21D;53638;51.062;5.804;2024-01-30T03:17:02;10.41;-6.00
66726;HTU21D;53638;51.062;5.804;2024-01-30T03:19:28;10.40;-6.00
66726;HTU21D;53638;51.062;5.804;2024-01-30T03:21:54;10.38;-6.00
66726;HTU21D;53638;51.062;5.804;2024-01-30T03:24:20;10.36;-6.00
66726;HTU21D;53638;51.062;5.804;2024-01-30T03:26:46;10.33;-6.00
66726;HTU21D;53638;51.062;5.804;2024-01-30T03:29:14;10.34;-6.00
66726;HTU21D;53638;51.062;5.804;2024-01-30T03:31:41;10.39;-6.00
66726;HTU21D;53638;51.062;5.804;2024-01-30T03:34:07;10.36;-6.00
66726;HTU21D;53638;51.062;5.804;2024-01-30T03:36:33;10.36;-6.00
66726;HTU21D;53638;51.062;5.804;2024-01-30T03:39:00;10.31;-6.00
66726;HTU21D;53638;51.062;5.804;2024-01-30T03:41:26;10.38;-6.00
66726;HTU21D;53638;51.062;5.804;2024-01-30T03:43:52;10.38;-6.00
66726;HTU21D;53638;51.062;5.804;2024-01-30T03:46:18;10.37;-6.00
66726;HTU21D;53638;51.062;5.804;2024-01-30T03:48:45;10.36;-6.00
66726;HTU21D;53638;51.062;5.804;2024-01-30T03:51:11;10.35;-6.00
66726;HTU21D;53638;51.062;5.804;2024-01-30T03:53:41;10.37;-6.00
66726;HTU21D;53638;51.062;5.804;2024-01-30T03:56:10;10.40;-6.00
66726;HTU21D;53638;51.062;5.804;2024-01-30T03:58:36;10.37;-6.00
66726;HTU21D;53638;51.062;5.804;2024-01-30T04:01:02;10.42;-6.00
66726;HTU21D;53638;51.062;5.804;2024-01-30T04:03:28;10.38;-6.00
66726;HTU21D;53638;51.062;5.804;2024-01-30T04:05:54;10.37;-6.00
66726;HTU21D;53638;51.062;5.804;2024-01-30T04:08:29;10.34;-6.00
66726;HTU21D;53638;51.062;5.804;2024-01-30T04:10:55;10.28;-6.00
66726;HTU21D;53638;51.062;5.804;2024-01-30T04:13:21;10.28;-6.00
66726;HTU21D;53638;51.062;5.804;2024-01-30T04:15:47;10.29;-6.00
66726;HTU21D;53638;51.062;5.804;2024-01-30T04:18:13;10.29;-6.00
66726;HTU21D;53638;51.062;5.804;2024-01-30T04:20:39;10.29;-6.00
66726;HTU21D;53638;51.062;5.804;2024-01-30T04:23:05;10.28;-6.00
66726;HTU21D;53638;51.062;5.804;2024-01-30T04:25:31;10.25;-6.00
66726;HTU21D;53638;51.062;5.804;2024-01-30T04:27:57;10.25;-6.00
66726;HTU21D;53638;51.062;5.804;2024-01-30T04:30:23;10.29;-6.00
66726;HTU21D;53638;51.062;5.804;2024-01-30T04:32:49;10.31;-6.00
66726;HTU21D;53638;51.062;5.804;2024-01-30T04:35:15;10.35;-6.00
66726;HTU21D;53638;51.062;5.804;2024-01-30T04:37:41;10.39;-6.00
66726;HTU21D;53638;51.062;5.804;2024-01-30T04:40:08;10.42;-6.00
66726;HTU21D;53638;51.062;5.804;2024-01-30T04:42:35;10.42;-6.00
66726;HTU21D;53638;51.062;5.804;2024-01-30T04:45:01;10.49;-6.00
66726;HTU21D;53638;51.062;5.804;2024-01-30T04:47:28;10.49;-6.00
66726;HTU21D;53638;51.062;5.804;2024-01-30T04:49:54;10.56;-6.00
66726;HTU21D;53638;51.062;5.804;2024-01-30T04:52:45;10.63;-6.00
66726;HTU21D;53638;51.062;5.804;2024-01-30T04:55:14;10.65;-6.00
66726;HTU21D;53638;51.062;5.804;2024-01-30T04:57:40;10.66;-6.00
66726;HTU21D;53638;51.062;5.804;2024-01-30T05:00:07;10.69;-6.00
66726;HTU21D;53638;51.062;5.804;2024-01-30T05:02:33;10.73;-6.00
66726;HTU21D;53638;51.062;5.804;2024-01-30T05:04:59;10.73;-6.00
66726;HTU21D;53638;51.062;5.804;2024-01-30T05:07:25;10.71;-6.00
66726;HTU21D;53638;51.062;5.804;2024-01-30T05:09:51;10.77;-6.00
66726;HTU21D;53638;51.062;5.804;2024-01-30T05:12:19;10.80;-6.00
66726;HTU21D;53638;51.062;5.804;2024-01-30T05:14:45;10.84;-6.00
66726;HTU21D;53638;51.062;5.804;2024-01-30T05:17:11;10.82;-6.00
66726;HTU21D;53638;51.062;5.804;2024-01-30T05:19:38;10.82;-6.00
66726;HTU21D;53638;51.062;5.804;2024-01-30T05:22:04;10.89;-6.00
66726;HTU21D;53638;51.062;5.804;2024-01-30T05:24:30;10.92;-6.00
66726;HTU21D;53638;51.062;5.804;2024-01-30T05:26:58;10.90;-6.00
66726;HTU21D;53638;51.062;5.804;2024-01-30T05:29:24;10.96;-6.00
66726;HTU21D;53638;51.062;5.804;2024-01-30T05:31:50;10.95;-6.00
66726;HTU21D;53638;51.062;5.804;2024-01-30T05:34:16;10.94;-6.00
66726;HTU21D;53638;51.062;5.804;2024-01-30T05:36:42;10.87;-6.00
66726;HTU21D;53638;51.062;5.804;2024-01-30T05:39:08;10.95;-6.00
66726;HTU21D;53638;51.062;5.804;2024-01-30T05:41:34;10.93;-6.00
66726;HTU21D;53638;51.062;5.804;2024-01-30T05:44:00;10.87;-6.00
66726;HTU21D;53638;51.062;5.804;2024-01-30T05:46:29;10.93;-6.00
66726;HTU21D;53638;51.062;5.804;2024-01-30T05:48:55;11.01;-6.00
66726;HTU21D;53638;51.062;5.804;2024-01-30T05:51:21;11.02;-6.00
66726;HTU21D;53638;51.062;5.804;2024-01-30T05:53:48;11.04;-6.00
66726;HTU21D;53638;51.062;5.804;2024-01-30T05:56:14;10.97;-6.00
66726;HTU21D;53638;51.062;5.804;2024-01-30T05:58:41;10.94;-6.00
66726;HTU21D;53638;51.062;5.804;2024-01-30T06:01:09;10.94;-6.00
66726;HTU21D;53638;51.062;5.804;2024-01-30T06:03:35;10.92;-6.00
66726;HTU21D;53638;51.062;5.804;2024-01-30T06:06:01;10.92;-6.00
66726;HTU21D;53638;51.062;5.804;2024-01-30T06:08:27;10.99;-6.00
66726;HTU21D;53638;51.062;5.804;2024-01-30T06:10:53;10.99;-6.00
66726;HTU21D;53638;51.062;5.804;2024-01-30T06:13:19;11.00;-6.00
66726;HTU21D;53638;51.062;5.804;2024-01-30T06:15:45;11.08;-6.00
66726;HTU21D;53638;51.062;5.804;2024-01-30T06:18:11;11.00;-6.00
66726;HTU21D;53638;51.062;5.804;2024-01-30T06:20:37;11.02;-6.00
66726;HTU21D;53638;51.062;5.804;2024-01-30T06:23:03;11.05;-6.00
66726;HTU21D;53638;51.062;5.804;2024-01-30T06:25:29;11.00;-6.00
66726;HTU21D;53638;51.062;5.804;2024-01-30T06:27:55;11.08;-6.00
66726;HTU21D;53638;51.062;5.804;2024-01-30T06:30:21;11.10;-6.00
66726;HTU21D;53638;51.062;5.804;2024-01-30T06:32:47;11.08;-6.00
66726;HTU21D;53638;51.062;5.804;2024-01-30T06:35:13;11.12;-6.00
66726;HTU21D;53638;51.062;5.804;2024-01-30T06:37:39;11.08;-6.00
66726;HTU21D;53638;51.062;5.804;2024-01-30T06:40:06;11.14;-6.00
66726;HTU21D;53638;51.062;5.804;2024-01-30T06:42:32;11.07;-6.00
66726;HTU21D;53638;51.062;5.804;2024-01-30T06:45:06;11.08;-6.00
66726;HTU21D;53638;51.062;5.804;2024-01-30T06:47:49;11.12;-6.00
66726;HTU21D;53638;51.062;5.804;2024-01-30T06:50:17;11.15;-6.00
66726;HTU21D;53638;51.062;5.804;2024-01-30T06:53:09;11.16;-6.00
66726;HTU21D;53638;51.062;5.804;2024-01-30T06:55:35;11.14;-6.00
66726;HTU21D;53638;51.062;5.804;2024-01-30T06:58:01;11.22;-6.00
66726;HTU21D;53638;51.062;5.804;2024-01-30T07:00:27;11.23;-6.00
66726;HTU21D;53638;51.062;5.804;2024-01-30T07:02:53;11.24;-6.00
66726;HTU21D;53638;51.062;5.804;2024-01-30T07:05:21;11.25;-6.00
66726;HTU21D;53638;51.062;5.804;2024-01-30T07:07:47;11.22;-6.00
66726;HTU21D;53638;51.062;5.804;2024-01-30T07:10:13;11.22;-6.00
66726;HTU21D;53638;51.062;5.804;2024-01-30T07:13:04;11.25;-6.00
66726;HTU21D;53638;51.062;5.804;2024-01-30T07:15:31;11.27;-6.00
66726;HTU21D;53638;51.062;5.804;2024-01-30T07:17:57;11.25;-6.00
66726;HTU21D;53638;51.062;5.804;2024-01-30T07:20:23;11.26;-6.00
66726;HTU21D;53638;51.062;5.804;2024-01-30T07:22:49;11.29;-6.00
66726;HTU21D;53638;51.062;5.804;2024-01-30T07:25:15;11.28;-6.00
66726;HTU21D;53638;51.062;5.804;2024-01-30T07:27:42;11.26;-6.00
66726;HTU21D;53638;51.062;5.804;2024-01-30T07:30:09;11.28;-6.00
66726;HTU21D;53638;51.062;5.804;2024-01-30T07:32:35;11.32;-6.00
66726;HTU21D;53638;51.062;5.804;2024-01-30T07:35:01;11.32;-6.00
66726;HTU21D;53638;51.062;5.804;2024-01-30T07:37:27;11.32;-6.00
66726;HTU21D;53638;51.062;5.804;2024-01-30T07:39:54;11.37;-6.00
66726;HTU21D;53638;51.062;5.804;2024-01-30T07:42:20;11.41;-6.00
66726;HTU21D;53638;51.062;5.804;2024-01-30T07:44:46;11.48;-6.00
66726;HTU21D;53638;51.062;5.804;2024-01-30T07:47:12;11.55;-6.00
66726;HTU21D;53638;51.062;5.804;2024-01-30T07:49:38;11.59;-6.00
66726;HTU21D;53638;51.062;5.804;2024-01-30T07:52:05;11.61;-6.00
66726;HTU21D;53638;51.062;5.804;2024-01-30T07:54:51;11.63;-6.00
66726;HTU21D;53638;51.062;5.804;2024-01-30T07:57:17;11.61;-6.00
66726;HTU21D;53638;51.062;5.804;2024-01-30T07:59:44;11.54;-6.00
66726;HTU21D;53638;51.062;5.804;2024-01-30T08:02:12;11.52;-6.00
66726;HTU21D;53638;51.062;5.804;2024-01-30T08:04:39;11.46;-6.00
66726;HTU21D;53638;51.062;5.804;2024-01-30T08:07:05;11.45;-6.00
66726;HTU21D;53638;51.062;5.804;2024-01-30T08:09:31;11.45;-6.00
66726;HTU21D;53638;51.062;5.804;2024-01-30T08:12:06;11.42;-6.00
66726;HTU21D;53638;51.062;5.804;2024-01-30T08:14:32;11.43;-6.00
66726;HTU21D;53638;51.062;5.804;2024-01-30T08:16:58;11.43;-6.00
66726;HTU21D;53638;51.062;5.804;2024-01-30T08:19:25;11.48;-6.00
66726;HTU21D;53638;51.062;5.804;2024-01-30T08:21:54;11.47;-6.00
66726;HTU21D;53638;51.062;5.804;2024-01-30T08:24:20;11.53;-6.00
66726;HTU21D;53638;51.062;5.804;2024-01-30T08:27:06;11.57;-6.00
66726;HTU21D;53638;51.062;5.804;2024-01-30T08:29:32;11.63;-6.00
66726;HTU21D;53638;51.062;5.804;2024-01-30T08:31:58;11.67;-6.00
66726;HTU21D;53638;51.062;5.804;2024-01-30T08:34:28;11.71;-6.00
66726;HTU21D;53638;51.062;5.804;2024-01-30T08:36:54;11.79;-6.00
66726;HTU21D;53638;51.062;5.804;2024-01-30T08:39:20;11.85;-6.00
66726;HTU21D;53638;51.062;5.804;2024-01-30T08:41:46;11.94;-6.00
66726;HTU21D;53638;51.062;5.804;2024-01-30T08:44:12;12.00;-6.00
66726;HTU21D;53638;51.062;5.804;2024-01-30T08:46:38;12.10;-6.00
66726;HTU21D;53638;51.062;5.804;2024-01-30T08:49:04;12.08;-6.00
66726;HTU21D;53638;51.062;5.804;2024-01-30T08:51:30;12.18;-6.00
66726;HTU21D;53638;51.062;5.804;2024-01-30T08:53:56;12.14;-6.00
66726;HTU21D;53638;51.062;5.804;2024-01-30T08:56:22;12.14;-6.00
66726;HTU21D;53638;51.062;5.804;2024-01-30T08:58:48;12.08;-6.00
66726;HTU21D;53638;51.062;5.804;2024-01-30T09:01:14;12.08;-6.00
66726;HTU21D;53638;51.062;5.804;2024-01-30T09:03:40;12.08;-6.00
66726;HTU21D;53638;51.062;5.804;2024-01-30T09:06:10;12.06;-6.00
66726;HTU21D;53638;51.062;5.804;2024-01-30T09:08:38;12.04;-6.00
66726;HTU21D;53638;51.062;5.804;2024-01-30T09:11:13;12.08;-6.00
66726;HTU21D;53638;51.062;5.804;2024-01-30T09:13:40;12.08;-6.00
66726;HTU21D;53638;51.062;5.804;2024-01-30T09:16:07;12.04;-6.00
66726;HTU21D;53638;51.062;5.804;2024-01-30T09:18:35;12.10;-6.00
66726;HTU21D;53638;51.062;5.804;2024-01-30T09:21:02;12.12;-6.00
66726;HTU21D;53638;51.062;5.804;2024-01-30T09:23:28;12.17;-6.00
66726;HTU21D;53638;51.062;5.804;2024-01-30T09:25:54;12.15;-6.00
66726;HTU21D;53638;51.062;5.804;2024-01-30T09:28:20;12.14;-6.00
66726;HTU21D;53638;51.062;5.804;2024-01-30T09:30:46;12.21;-6.00
66726;HTU21D;53638;51.062;5.804;2024-01-30T09:33:12;12.25;-6.00
66726;HTU21D;53638;51.062;5.804;2024-01-30T09:35:38;12.29;-6.00
66726;HTU21D;53638;51.062;5.804;2024-01-30T09:38:04;12.29;-6.00
66726;HTU21D;53638;51.062;5.804;2024-01-30T09:40:31;12.33;-6.00
66726;HTU21D;53638;51.062;5.804;2024-01-30T09:42:58;12.34;-6.00
66726;HTU21D;53638;51.062;5.804;2024-01-30T09:45:26;12.35;-6.00
66726;HTU21D;53638;51.062;5.804;2024-01-30T09:47:52;12.48;-6.00
66726;HTU21D;53638;51.062;5.804;2024-01-30T09:50:19;12.45;-6.00
66726;HTU21D;53638;51.062;5.804;2024-01-30T09:52:47;12.49;-6.00
66726;HTU21D;53638;51.062;5.804;2024-01-30T09:55:19;12.56;-6.00
66726;HTU21D;53638;51.062;5.804;2024-01-30T09:57:44;12.45;-6.00
66726;HTU21D;53638;51.062;5.804;2024-01-30T10:00:11;12.48;-6.00
66726;HTU21D;53638;51.062;5.804;2024-01-30T10:02:39;12.62;-6.00
66726;HTU21D;53638;51.062;5.804;2024-01-30T10:05:06;12.70;-6.00
66726;HTU21D;53638;51.062;5.804;2024-01-30T10:07:32;12.81;-6.00
66726;HTU21D;53638;51.062;5.804;2024-01-30T10:09:57;12.78;-6.00
66726;HTU21D;53638;51.062;5.804;2024-01-30T10:12:26;12.92;-6.00
66726;HTU21D;53638;51.062;5.804;2024-01-30T10:14:52;13.08;-6.00
66726;HTU21D;53638;51.062;5.804;2024-01-30T10:17:18;13.04;-6.00
66726;HTU21D;53638;51.062;5.804;2024-01-30T10:19:46;12.99;-6.00
66726;HTU21D;53638;51.062;5.804;2024-01-30T10:22:12;13.03;-6.00
66726;HTU21D;53638;51.062;5.804;2024-01-30T10:24:39;13.03;-6.00
66726;HTU21D;53638;51.062;5.804;2024-01-30T10:27:05;13.02;-6.00
66726;HTU21D;53638;51.062;5.804;2024-01-30T10:29:39;12.96;-6.00
66726;HTU21D;53638;51.062;5.804;2024-01-30T10:32:05;13.06;-6.00
66726;HTU21D;53638;51.062;5.804;2024-01-30T10:34:32;13.16;-6.00
66726;HTU21D;53638;51.062;5.804;2024-01-30T10:37:07;13.25;-6.00
66726;HTU21D;53638;51.062;5.804;2024-01-30T10:39:39;13.21;-6.00
66726;HTU21D;53638;51.062;5.804;2024-01-30T10:42:07;13.33;-6.00
66726;HTU21D;53638;51.062;5.804;2024-01-30T10:47:20;13.22;-6.00
66726;HTU21D;53638;51.062;5.804;2024-01-30T10:49:47;13.23;-6.00
66726;HTU21D;53638;51.062;5.804;2024-01-30T10:52:14;13.37;-6.00
66726;HTU21D;53638;51.062;5.804;2024-01-30T10:54:44;13.43;-6.00
66726;HTU21D;53638;51.062;5.804;2024-01-30T10:57:11;13.51;-6.00
66726;HTU21D;53638;51.062;5.804;2024-01-30T10:59:38;13.53;-6.00
66726;HTU21D;53638;51.062;5.804;2024-01-30T11:02:06;13.52;-6.00
66726;HTU21D;53638;51.062;5.804;2024-01-30T11:04:38;13.55;-6.00
66726;HTU21D;53638;51.062;5.804;2024-01-30T11:07:14;13.49;-6.00
66726;HTU21D;53638;51.062;5.804;2024-01-30T11:09:49;13.36;-6.00
66726;HTU21D;53638;51.062;5.804;2024-01-30T11:12:15;13.24;-6.00
66726;HTU21D;53638;51.062;5.804;2024-01-30T11:14:41;13.20;-6.00
66726;HTU21D;53638;51.062;5.804;2024-01-30T11:17:09;13.31;-6.00
66726;HTU21D;53638;51.062;5.804;2024-01-30T11:19:38;13.33;-6.00
66726;HTU21D;53638;51.062;5.804;2024-01-30T11:22:06;13.37;-6.00
66726;HTU21D;53638;51.062;5.804;2024-01-30T11:24:39;13.32;-6.00
66726;HTU21D;53638;51.062;5.804;2024-01-30T11:27:09;13.40;-6.00
66726;HTU21D;53638;51.062;5.804;2024-01-30T11:29:40;13.44;-6.00
66726;HTU21D;53638;51.062;5.804;2024-01-30T11:32:06;13.33;-6.00
66726;HTU21D;53638;51.062;5.804;2024-01-30T11:34:33;13.38;-6.00
66726;HTU21D;53638;51.062;5.804;2024-01-30T11:37:11;13.32;-6.00
66726;HTU21D;53638;51.062;5.804;2024-01-30T11:39:38;13.29;-6.00
66726;HTU21D;53638;51.062;5.804;2024-01-30T11:42:07;13.24;-6.00
66726;HTU21D;53638;51.062;5.804;2024-01-30T11:44:34;13.21;-6.00
66726;HTU21D;53638;51.062;5.804;2024-01-30T11:47:00;13.10;-6.00
66726;HTU21D;53638;51.062;5.804;2024-01-30T11:49:26;13.05;-6.00
66726;HTU21D;53638;51.062;5.804;2024-01-30T11:51:52;13.11;-6.00
66726;HTU21D;53638;51.062;5.804;2024-01-30T11:54:19;13.21;-6.00
66726;HTU21D;53638;51.062;5.804;2024-01-30T11:56:45;13.11;-6.00
66726;HTU21D;53638;51.062;5.804;2024-01-30T11:59:11;13.08;-6.00
66726;HTU21D;53638;51.062;5.804;2024-01-30T12:01:37;12.99;-6.00
66726;HTU21D;53638;51.062;5.804;2024-01-30T12:04:03;12.86;-6.00
66726;HTU21D;53638;51.062;5.804;2024-01-30T12:06:34;12.95;-6.00
66726;HTU21D;53638;51.062;5.804;2024-01-30T12:09:01;13.02;-6.00
66726;HTU21D;53638;51.062;5.804;2024-01-30T12:11:30;13.07;-6.00
66726;HTU21D;53638;51.062;5.804;2024-01-30T12:13:56;12.87;-6.00
66726;HTU21D;53638;51.062;5.804;2024-01-30T12:16:23;12.87;-6.00
66726;HTU21D;53638;51.062;5.804;2024-01-30T12:18:59;12.82;-6.00
66726;HTU21D;53638;51.062;5.804;2024-01-30T12:21:26;12.84;-6.00
66726;HTU21D;53638;51.062;5.804;2024-01-30T12:23:52;12.87;-6.00
66726;HTU21D;53638;51.062;5.804;2024-01-30T12:26:18;12.97;-6.00
66726;HTU21D;53638;51.062;5.804;2024-01-30T12:28:56;12.94;-6.00
66726;HTU21D;53638;51.062;5.804;2024-01-30T12:31:28;12.84;-6.00
66726;HTU21D;53638;51.062;5.804;2024-01-30T12:33:54;12.80;-6.00
66726;HTU21D;53638;51.062;5.804;2024-01-30T12:36:21;12.79;-6.00
66726;HTU21D;53638;51.062;5.804;2024-01-30T12:38:48;12.85;-6.00
66726;HTU21D;53638;51.062;5.804;2024-01-30T12:41:14;12.86;-6.00
66726;HTU21D;53638;51.062;5.804;2024-01-30T12:43:40;12.71;-6.00
66726;HTU21D;53638;51.062;5.804;2024-01-30T12:46:06;12.64;-6.00
66726;HTU21D;53638;51.062;5.804;2024-01-30T12:48:32;12.51;-6.00
66726;HTU21D;53638;51.062;5.804;2024-01-30T12:51:00;12.86;-6.00
66726;HTU21D;53638;51.062;5.804;2024-01-30T12:53:26;12.97;-6.00
66726;HTU21D;53638;51.062;5.804;2024-01-30T12:55:52;13.49;-6.00
66726;HTU21D;53638;51.062;5.804;2024-01-30T12:58:20;13.78;-6.00
66726;HTU21D;53638;51.062;5.804;2024-01-30T13:00:46;13.68;-6.00
66726;HTU21D;53638;51.062;5.804;2024-01-30T13:03:13;13.59;-6.00
66726;HTU21D;53638;51.062;5.804;2024-01-30T13:05:39;13.43;-6.00
66726;HTU21D;53638;51.062;5.804;2024-01-30T13:08:05;13.37;-6.00
66726;HTU21D;53638;51.062;5.804;2024-01-30T13:10:31;13.59;-6.00
66726;HTU21D;53638;51.062;5.804;2024-01-30T13:12:57;13.64;-6.00
66726;HTU21D;53638;51.062;5.804;2024-01-30T13:15:23;13.46;-6.00
66726;HTU21D;53638;51.062;5.804;2024-01-30T13:17:49;13.27;-6.00
66726;HTU21D;53638;51.062;5.804;2024-01-30T13:20:15;13.20;-6.00
66726;HTU21D;53638;51.062;5.804;2024-01-30T13:22:47;13.14;-6.00
66726;HTU21D;53638;51.062;5.804;2024-01-30T13:25:20;13.05;-6.00
66726;HTU21D;53638;51.062;5.804;2024-01-30T13:27:46;12.76;-6.00
66726;HTU21D;53638;51.062;5.804;2024-01-30T13:30:12;12.99;-6.00
66726;HTU21D;53638;51.062;5.804;2024-01-30T13:32:38;12.99;-6.00
66726;HTU21D;53638;51.062;5.804;2024-01-30T13:35:07;12.87;-6.00
66726;HTU21D;53638;51.062;5.804;2024-01-30T13:37:33;12.70;-6.00
66726;HTU21D;53638;51.062;5.804;2024-01-30T13:39:59;12.84;-6.00
66726;HTU21D;53638;51.062;5.804;2024-01-30T13:42:25;13.04;-6.00
66726;HTU21D;53638;51.062;5.804;2024-01-30T13:44:51;13.14;-6.00
66726;HTU21D;53638;51.062;5.804;2024-01-30T13:47:17;13.04;-6.00
66726;HTU21D;53638;51.062;5.804;2024-01-30T13:49:44;13.18;-6.00
66726;HTU21D;53638;51.062;5.804;2024-01-30T13:52:16;13.04;-6.00
66726;HTU21D;53638;51.062;5.804;2024-01-30T13:54:45;13.04;-6.00
66726;HTU21D;53638;51.062;5.804;2024-01-30T13:57:12;12.85;-6.00
66726;HTU21D;53638;51.062;5.804;2024-01-30T13:59:38;12.99;-6.00
66726;HTU21D;53638;51.062;5.804;2024-01-30T14:02:04;13.09;-6.00
66726;HTU21D;53638;51.062;5.804;2024-01-30T14:04:31;13.17;-6.00
66726;HTU21D;53638;51.062;5.804;2024-01-30T14:06:57;13.30;-6.00
66726;HTU21D;53638;51.062;5.804;2024-01-30T14:09:23;13.30;-6.00
66726;HTU21D;53638;51.062;5.804;2024-01-30T14:11:49;13.26;-6.00
66726;HTU21D;53638;51.062;5.804;2024-01-30T14:14:14;13.34;-6.00
66726;HTU21D;53638;51.062;5.804;2024-01-30T14:16:40;13.60;-6.00
66726;HTU21D;53638;51.062;5.804;2024-01-30T14:19:06;13.85;-6.00
66726;HTU21D;53638;51.062;5.804;2024-01-30T14:21:32;14.05;-6.00
66726;HTU21D;53638;51.062;5.804;2024-01-30T14:23:58;13.69;-6.00
66726;HTU21D;53638;51.062;5.804;2024-01-30T14:26:24;13.41;-6.00
66726;HTU21D;53638;51.062;5.804;2024-01-30T14:28:50;13.31;-6.00
66726;HTU21D;53638;51.062;5.804;2024-01-30T14:31:15;13.17;-6.00
66726;HTU21D;53638;51.062;5.804;2024-01-30T14:33:44;13.03;-6.00
66726;HTU21D;53638;51.062;5.804;2024-01-30T14:36:10;13.11;-6.00
66726;HTU21D;53638;51.062;5.804;2024-01-30T14:38:35;12.92;-6.00
66726;HTU21D;53638;51.062;5.804;2024-01-30T14:41:01;12.94;-6.00
66726;HTU21D;53638;51.062;5.804;2024-01-30T14:43:29;12.96;-6.00
66726;HTU21D;53638;51.062;5.804;2024-01-30T14:45:55;13.03;-6.00
66726;HTU21D;53638;51.062;5.804;2024-01-30T14:48:21;13.08;-6.00
66726;HTU21D;53638;51.062;5.804;2024-01-30T14:50:47;12.64;-6.00
66726;HTU21D;53638;51.062;5.804;2024-01-30T14:53:13;12.92;-6.00
66726;HTU21D;53638;51.062;5.804;2024-01-30T14:55:39;12.75;-6.00
66726;HTU21D;53638;51.062;5.804;2024-01-30T14:58:05;13.20;-6.00
66726;HTU21D;53638;51.062;5.804;2024-01-30T15:00:31;13.69;-6.00
66726;HTU21D;53638;51.062;5.804;2024-01-30T15:02:57;14.07;-6.00
66726;HTU21D;53638;51.062;5.804;2024-01-30T15:05:22;13.79;-6.00
66726;HTU21D;53638;51.062;5.804;2024-01-30T15:07:48;13.24;-6.00
66726;HTU21D;53638;51.062;5.804;2024-01-30T15:10:17;13.05;-6.00
66726;HTU21D;53638;51.062;5.804;2024-01-30T15:12:43;12.59;-6.00
66726;HTU21D;53638;51.062;5.804;2024-01-30T15:15:09;12.18;-6.00
66726;HTU21D;53638;51.062;5.804;2024-01-30T15:17:35;12.07;-6.00
66726;HTU21D;53638;51.062;5.804;2024-01-30T15:20:01;12.20;-6.00
66726;HTU21D;53638;51.062;5.804;2024-01-30T15:22:28;12.20;-6.00